Terminal Aerodrome Forecast
Issued by NWS Houston/Galveston, TX

Current Version | Previous Version | Text Only | Print | Product List | Glossary On
Versions: 1 2 3 4 5 6 7 8 9 10 11 12 13 14 15 16 17 18 19 20 21 22 23 24 25 26 27 28 29 30 31 32 33
000
FTUS44 KHGX 222040 AAA
TAFCLL
TAF AMD
KCLL 222040Z 2221/2318 29006KT 1 1/2SM BR VCSH OVC002
     FM230000 02005KT 2SM BR OVC004
     FM230500 35005KT 1/4SM FG VV002
     FM231300 03004KT 1/2SM FG VCSH OVC003 PROB30 2314/2318 2SM SHRA
      BR OVC005=

USA.gov is the U.S. government's official web portal to all federal, state and local government web resources and services.